createdAt,value
2023-01-07T00:01:19.579Z,15.94
2023-01-07T00:04:27.652Z,17.04
2023-01-07T00:07:36.317Z,17.82
2023-01-07T00:10:43.295Z,18.24
2023-01-07T00:13:52.437Z,18.30
2023-01-07T00:16:59.329Z,18.26
2023-01-07T00:20:05.434Z,17.03
2023-01-07T00:23:15.033Z,17.12
2023-01-07T00:26:24.232Z,17.48
2023-01-07T00:29:31.126Z,16.90
2023-01-07T00:32:49.932Z,16.78
2023-01-07T00:36:03.005Z,16.40
2023-01-07T00:39:16.751Z,16.21
2023-01-07T00:42:35.973Z,16.04
2023-01-07T00:45:42.000Z,16.54
2023-01-07T00:48:49.024Z,16.21
2023-01-07T00:51:55.681Z,16.19
2023-01-07T00:55:05.299Z,15.51
2023-01-07T00:58:19.760Z,16.42
2023-01-07T01:01:26.858Z,16.20
2023-01-07T01:04:33.101Z,16.32
2023-01-07T01:07:40.851Z,17.08
2023-01-07T01:10:49.889Z,15.35
2023-01-07T01:13:56.749Z,15.25
2023-01-07T01:17:02.766Z,15.12
2023-01-07T01:20:16.580Z,15.69
2023-01-07T01:23:24.191Z,15.29
2023-01-07T01:26:33.742Z,14.66
2023-01-07T01:29:39.734Z,14.58
2023-01-07T01:32:46.597Z,14.75
2023-01-07T01:35:53.546Z,14.49
2023-01-07T01:39:00.508Z,14.55
2023-01-07T01:42:16.462Z,14.45
2023-01-07T01:45:23.439Z,14.64
2023-01-07T01:48:29.691Z,14.96
2023-01-07T01:51:44.545Z,14.28
2023-01-07T01:54:58.264Z,14.32
2023-01-07T01:58:17.870Z,14.75
2023-01-07T02:01:24.120Z,14.20
2023-01-07T02:04:33.683Z,14.71
2023-01-07T02:07:39.779Z,14.40
2023-01-07T02:10:46.838Z,14.16
2023-01-07T02:14:25.480Z,15.32
2023-01-07T02:18:08.035Z,17.37
2023-01-07T02:21:46.915Z,18.90
2023-01-07T02:25:52.009Z,20.86
2023-01-07T02:29:44.322Z,21.69
2023-01-07T02:33:40.012Z,23.72
2023-01-07T02:36:59.845Z,25.08
2023-01-07T02:40:23.965Z,25.56
2023-01-07T02:43:44.147Z,27.12
2023-01-07T02:47:01.896Z,27.40
2023-01-07T02:50:13.036Z,27.68
2023-01-07T02:53:24.129Z,28.18
2023-01-07T02:56:58.295Z,29.46
2023-01-07T03:00:42.806Z,27.65
2023-01-07T03:04:25.650Z,25.31
2023-01-07T03:07:56.691Z,21.63
2023-01-07T03:11:07.408Z,22.08
2023-01-07T03:14:22.581Z,31.96
2023-01-07T03:17:40.257Z,33.07
2023-01-07T03:20:52.957Z,34.66
2023-01-07T03:24:04.169Z,28.79
2023-01-07T03:27:12.694Z,26.23
2023-01-07T03:30:22.748Z,25.30
2023-01-07T03:33:42.855Z,24.88
2023-01-07T03:36:56.075Z,31.40
2023-01-07T03:40:12.831Z,31.73
2023-01-07T03:43:25.198Z,31.60
2023-01-07T03:46:33.422Z,31.91
2023-01-07T03:49:41.015Z,33.23
2023-01-07T03:52:49.395Z,34.47
2023-01-07T03:55:59.543Z,35.14
2023-01-07T03:59:07.033Z,36.84
2023-01-07T04:02:13.197Z,36.97
2023-01-07T04:05:20.795Z,36.41
2023-01-07T04:08:27.574Z,36.44
2023-01-07T04:11:37.376Z,37.79
2023-01-07T04:14:43.649Z,37.49
2023-01-07T04:17:50.529Z,37.02
2023-01-07T04:20:57.404Z,37.51
2023-01-07T04:24:04.801Z,38.57
2023-01-07T04:27:13.548Z,38.87
2023-01-07T04:30:21.171Z,39.18
2023-01-07T04:33:27.301Z,37.92
2023-01-07T04:36:34.599Z,38.71
2023-01-07T04:39:40.950Z,43.75
2023-01-07T04:42:50.456Z,47.32
2023-01-07T04:45:56.743Z,47.75
2023-01-07T04:49:03.781Z,46.67
2023-01-07T04:52:09.974Z,44.46
2023-01-07T04:55:18.784Z,46.53
2023-01-07T04:58:29.349Z,50.32
2023-01-07T05:01:37.435Z,50.24
2023-01-07T05:04:45.677Z,48.53
2023-01-07T05:07:53.211Z,48.52
2023-01-07T05:11:02.334Z,48.28
2023-01-07T05:14:15.549Z,48.38
2023-01-07T05:17:25.191Z,50.80
2023-01-07T05:20:33.071Z,47.85
2023-01-07T05:23:39.907Z,45.41
2023-01-07T05:26:47.135Z,39.25
2023-01-07T05:29:58.430Z,38.26
2023-01-07T05:33:07.436Z,40.13
2023-01-07T05:36:14.696Z,39.57
2023-01-07T05:39:21.704Z,38.50
2023-01-07T05:42:27.934Z,37.63
2023-01-07T05:45:37.599Z,39.12
2023-01-07T05:48:43.762Z,38.37
2023-01-07T05:51:50.652Z,36.11
2023-01-07T05:54:56.726Z,35.37
2023-01-07T05:58:03.671Z,37.62
2023-01-07T06:01:12.434Z,39.20
2023-01-07T06:04:19.475Z,43.45
2023-01-07T06:07:25.542Z,48.67
2023-01-07T06:10:32.509Z,41.48
2023-01-07T06:13:39.404Z,40.94
2023-01-07T06:16:48.948Z,37.96
2023-01-07T06:19:55.095Z,43.11
2023-01-07T06:23:02.922Z,64.78
2023-01-07T06:26:09.045Z,155.19
2023-01-07T06:29:16.006Z,158.34
2023-01-07T06:32:24.865Z,78.48
2023-01-07T06:35:31.767Z,61.28
2023-01-07T06:38:38.063Z,65.64
2023-01-07T06:41:45.064Z,69.19
2023-01-07T06:44:51.075Z,81.70
2023-01-07T06:48:00.516Z,76.28
2023-01-07T06:51:06.794Z,79.84
2023-01-07T06:54:14.349Z,81.40
2023-01-07T06:57:20.485Z,77.22
2023-01-07T07:00:27.514Z,74.74
2023-01-07T07:03:36.275Z,72.68
2023-01-07T07:06:43.216Z,73.00
2023-01-07T07:09:51.101Z,72.16
2023-01-07T07:12:57.995Z,72.67
2023-01-07T07:16:04.492Z,70.22
2023-01-07T07:19:14.108Z,70.70
2023-01-07T07:22:20.290Z,66.86
2023-01-07T07:25:27.294Z,63.47
2023-01-07T07:28:33.349Z,63.58
2023-01-07T07:31:40.499Z,59.29
2023-01-07T07:34:49.462Z,63.17
2023-01-07T07:37:56.673Z,60.21
2023-01-07T07:41:05.156Z,53.87
2023-01-07T07:44:12.539Z,49.53
2023-01-07T07:47:18.842Z,48.52
2023-01-07T07:50:28.455Z,46.80
2023-01-07T07:53:34.699Z,46.30
2023-01-07T07:56:41.807Z,44.74
2023-01-07T07:59:48.139Z,44.93
2023-01-07T08:02:55.577Z,40.47
2023-01-07T08:06:04.550Z,39.79
2023-01-07T08:09:12.747Z,40.55
2023-01-07T08:12:18.989Z,40.51
2023-01-07T08:15:26.318Z,39.55
2023-01-07T08:18:32.482Z,37.74
2023-01-07T08:21:42.221Z,38.00
2023-01-07T08:24:48.377Z,40.95
2023-01-07T08:27:55.408Z,36.45
2023-01-07T08:31:06.298Z,32.37
2023-01-07T08:34:13.314Z,28.31
2023-01-07T08:37:22.120Z,30.25
2023-01-07T08:40:29.135Z,32.34
2023-01-07T08:43:36.307Z,36.06
2023-01-07T08:46:43.512Z,37.15
2023-01-07T08:49:49.597Z,42.03
2023-01-07T08:52:59.709Z,44.57
2023-01-07T08:56:06.047Z,40.55
2023-01-07T08:59:12.951Z,36.68
2023-01-07T09:02:22.952Z,36.58
2023-01-07T09:05:29.995Z,36.02
2023-01-07T09:08:40.655Z,32.50
2023-01-07T09:11:47.681Z,28.84
2023-01-07T09:14:53.906Z,25.27
2023-01-07T09:18:03.782Z,32.85
2023-01-07T09:21:10.324Z,29.26
2023-01-07T09:24:20.508Z,32.86
2023-01-07T09:27:27.033Z,33.65
2023-01-07T09:30:34.648Z,29.99
2023-01-07T09:33:41.099Z,27.33
2023-01-07T09:36:48.134Z,23.18
2023-01-07T09:39:56.913Z,23.11
2023-01-07T09:43:17.694Z,24.11
2023-01-07T09:46:24.497Z,23.89
2023-01-07T09:49:35.404Z,24.94
2023-01-07T09:52:52.147Z,23.77
2023-01-07T09:56:13.961Z,24.10
2023-01-07T09:59:23.231Z,25.09
2023-01-07T10:02:52.299Z,26.68
2023-01-07T10:06:14.774Z,25.92
2023-01-07T10:09:42.294Z,27.64
2023-01-07T10:13:12.389Z,31.05
2023-01-07T10:16:36.392Z,29.53
2023-01-07T10:19:59.010Z,26.01
2023-01-07T10:23:13.783Z,24.00
2023-01-07T10:26:33.454Z,21.62
2023-01-07T10:29:52.388Z,18.70
2023-01-07T10:33:25.424Z,15.55
2023-01-07T10:36:40.852Z,14.89
2023-01-07T10:40:05.319Z,19.30
2023-01-07T10:43:35.530Z,18.83
2023-01-07T10:47:07.183Z,18.96
2023-01-07T10:50:55.259Z,17.01
2023-01-07T10:54:14.491Z,16.71
2023-01-07T10:57:26.724Z,17.64
2023-01-07T11:00:33.753Z,15.54
2023-01-07T11:03:43.782Z,16.28
2023-01-07T11:07:04.301Z,18.48
2023-01-07T11:10:18.431Z,17.87
2023-01-07T11:13:32.965Z,17.89
2023-01-07T11:16:51.225Z,17.46
2023-01-07T11:20:00.127Z,16.75
2023-01-07T11:23:31.269Z,15.59
2023-01-07T11:26:38.617Z,14.68
2023-01-07T11:29:51.429Z,14.31
2023-01-07T11:33:03.647Z,15.29
2023-01-07T11:36:13.545Z,15.07
2023-01-07T11:39:25.956Z,14.39
2023-01-07T11:42:42.837Z,15.07
2023-01-07T11:46:19.643Z,14.50
2023-01-07T11:49:32.137Z,14.42
2023-01-07T11:52:41.086Z,14.87
2023-01-07T11:56:02.936Z,14.39
2023-01-07T11:59:32.639Z,14.16
2023-01-07T12:02:39.614Z,14.70
2023-01-07T12:05:48.330Z,14.33
2023-01-07T12:09:12.739Z,13.84
2023-01-07T12:12:39.548Z,12.55
2023-01-07T12:15:57.773Z,12.57
2023-01-07T12:19:25.616Z,12.43
2023-01-07T12:22:52.475Z,12.95
2023-01-07T12:26:19.486Z,12.28
2023-01-07T12:29:45.495Z,13.15
2023-01-07T12:33:14.450Z,13.42
2023-01-07T12:36:36.600Z,12.36
2023-01-07T12:39:48.363Z,12.56
2023-01-07T12:43:08.048Z,11.68
2023-01-07T12:46:20.480Z,12.18
2023-01-07T12:49:38.430Z,12.35
2023-01-07T12:52:53.801Z,13.17
2023-01-07T12:56:10.624Z,13.09
2023-01-07T12:59:45.884Z,13.29
2023-01-07T13:03:13.194Z,12.88
2023-01-07T13:06:42.898Z,13.88
2023-01-07T13:10:02.885Z,15.20
2023-01-07T13:13:24.144Z,17.52
2023-01-07T13:16:33.899Z,21.39
2023-01-07T13:19:40.194Z,20.39
2023-01-07T13:22:56.300Z,17.30
2023-01-07T13:26:25.756Z,18.06
2023-01-07T13:30:04.347Z,15.80
2023-01-07T13:33:27.754Z,16.72
2023-01-07T13:36:51.388Z,16.07
2023-01-07T13:40:30.804Z,19.04
2023-01-07T13:44:09.907Z,15.90
2023-01-07T13:47:23.654Z,14.67
2023-01-07T13:50:40.894Z,14.39
2023-01-07T13:53:50.357Z,16.73
2023-01-07T13:56:57.531Z,19.67
2023-01-07T14:00:08.469Z,21.73
2023-01-07T14:03:53.666Z,22.91
2023-01-07T14:07:05.562Z,24.88
2023-01-07T14:10:28.668Z,26.37
2023-01-07T14:13:52.833Z,27.04
2023-01-07T14:17:20.728Z,25.79
2023-01-07T14:20:42.681Z,24.99
2023-01-07T14:24:25.913Z,25.60
2023-01-07T14:27:58.389Z,24.57
2023-01-07T14:31:07.726Z,23.16
2023-01-07T14:34:26.807Z,24.42
2023-01-07T14:37:40.797Z,29.12
2023-01-07T14:41:10.228Z,30.20
2023-01-07T14:44:32.872Z,26.95
2023-01-07T14:47:57.563Z,28.79
2023-01-07T14:51:50.627Z,36.67
2023-01-07T14:55:42.289Z,35.28
2023-01-07T14:59:45.574Z,33.90
2023-01-07T15:03:30.658Z,35.08
2023-01-07T15:06:42.091Z,33.80
2023-01-07T15:10:11.708Z,35.55
2023-01-07T15:13:37.033Z,80.27
2023-01-07T15:16:52.331Z,77.90
2023-01-07T15:20:01.428Z,66.49
2023-01-07T15:23:20.867Z,75.97
2023-01-07T15:26:47.485Z,53.54
2023-01-07T15:30:06.378Z,52.55
2023-01-07T15:33:53.986Z,57.28
2023-01-07T15:37:05.212Z,49.02
2023-01-07T15:40:21.637Z,43.02
2023-01-07T15:43:32.921Z,47.32
2023-01-07T15:46:44.338Z,53.50
2023-01-07T15:49:53.204Z,54.88
2023-01-07T15:53:04.092Z,59.92
2023-01-07T15:56:20.564Z,55.51
2023-01-07T15:59:33.032Z,64.21
2023-01-07T16:02:47.384Z,61.19
2023-01-07T16:05:57.581Z,47.73
2023-01-07T16:09:20.098Z,43.76
2023-01-07T16:12:36.277Z,42.55
2023-01-07T16:15:43.145Z,53.75
2023-01-07T16:18:58.469Z,69.77
2023-01-07T16:22:09.152Z,98.20
2023-01-07T16:25:28.393Z,79.41
2023-01-07T16:28:45.160Z,151.50
2023-01-07T16:31:53.159Z,147.57
2023-01-07T16:35:11.258Z,120.62
2023-01-07T16:38:24.019Z,123.69
2023-01-07T16:41:33.373Z,95.21
2023-01-07T16:45:05.937Z,88.12
2023-01-07T16:48:23.875Z,96.35
2023-01-07T16:51:45.023Z,117.41
2023-01-07T16:54:54.037Z,230.18
2023-01-07T16:58:01.308Z,141.98
2023-01-07T17:01:09.022Z,140.47
2023-01-07T17:04:28.064Z,100.52
2023-01-07T17:07:41.592Z,87.54
2023-01-07T17:11:06.071Z,100.81
2023-01-07T17:14:48.599Z,138.48
2023-01-07T17:17:55.525Z,140.62
2023-01-07T17:21:04.640Z,116.63
2023-01-07T17:24:48.303Z,118.53
2023-01-07T17:28:03.460Z,106.48
2023-01-07T17:31:10.550Z,95.93
2023-01-07T17:34:18.347Z,82.65
2023-01-07T17:37:25.374Z,75.03
2023-01-07T17:40:31.446Z,76.37
2023-01-07T17:43:38.288Z,80.42
2023-01-07T17:46:45.263Z,91.68
2023-01-07T17:49:52.087Z,100.05
2023-01-07T17:52:58.512Z,108.00
2023-01-07T17:56:06.673Z,114.50
2023-01-07T17:59:19.909Z,113.56
2023-01-07T18:02:33.042Z,93.01
2023-01-07T18:05:39.998Z,95.75
2023-01-07T18:08:47.734Z,89.32
2023-01-07T18:12:06.269Z,92.55
2023-01-07T18:15:29.178Z,95.34
2023-01-07T18:18:35.500Z,65.87
2023-01-07T18:21:42.620Z,52.05
2023-01-07T18:24:48.750Z,47.18
2023-01-07T18:27:57.338Z,44.98
2023-01-07T18:31:06.280Z,49.83
2023-01-07T18:34:15.629Z,51.27
2023-01-07T18:37:21.847Z,58.38
2023-01-07T18:40:28.989Z,69.39
2023-01-07T18:43:35.291Z,55.69
2023-01-07T18:46:45.529Z,59.38
2023-01-07T18:49:51.748Z,80.27
2023-01-07T18:52:58.803Z,81.76
2023-01-07T18:56:08.605Z,104.49
2023-01-07T18:59:15.901Z,126.46
2023-01-07T19:02:25.466Z,110.34
2023-01-07T19:05:33.547Z,108.49
2023-01-07T19:08:40.197Z,91.22
2023-01-07T19:11:47.262Z,93.51
2023-01-07T19:14:53.276Z,123.42
2023-01-07T19:18:02.940Z,127.97
2023-01-07T19:21:13.620Z,143.33
2023-01-07T19:24:20.681Z,138.38
2023-01-07T19:27:27.388Z,147.03
2023-01-07T19:30:34.425Z,149.30
2023-01-07T19:33:43.603Z,149.05
2023-01-07T19:36:50.655Z,141.80
2023-01-07T19:39:56.985Z,134.47
2023-01-07T19:43:04.117Z,125.21
2023-01-07T19:46:13.391Z,126.54
2023-01-07T19:49:23.288Z,140.70
2023-01-07T19:52:29.695Z,148.72
2023-01-07T19:55:36.711Z,145.03
2023-01-07T19:58:44.085Z,145.97
2023-01-07T20:01:53.847Z,153.34
2023-01-07T20:05:02.795Z,161.28
2023-01-07T20:08:10.559Z,167.88
2023-01-07T20:11:17.966Z,171.17
2023-01-07T20:14:24.905Z,166.29
2023-01-07T20:17:31.045Z,162.72
2023-01-07T20:20:40.727Z,164.79
2023-01-07T20:23:48.177Z,167.64
2023-01-07T20:26:55.320Z,167.01
2023-01-07T20:30:01.581Z,155.49
2023-01-07T20:33:08.688Z,156.24
2023-01-07T20:36:21.251Z,152.25
2023-01-07T20:39:28.332Z,142.17
2023-01-07T20:42:34.888Z,139.42
2023-01-07T20:45:41.942Z,142.80
2023-01-07T20:48:48.222Z,142.64
2023-01-07T20:51:57.843Z,133.10
2023-01-07T20:55:03.878Z,124.35
2023-01-07T20:58:11.143Z,117.11
2023-01-07T21:01:21.067Z,111.51
2023-01-07T21:04:29.351Z,108.27
2023-01-07T21:07:38.252Z,104.01
2023-01-07T21:10:45.433Z,102.48
2023-01-07T21:13:56.320Z,99.84
2023-01-07T21:17:03.553Z,100.01
2023-01-07T21:20:13.887Z,95.99
2023-01-07T21:23:26.437Z,96.49
2023-01-07T21:26:33.100Z,97.95
2023-01-07T21:29:40.093Z,98.43
2023-01-07T21:32:47.574Z,95.76
2023-01-07T21:35:54.632Z,93.40
2023-01-07T21:39:03.778Z,91.86
2023-01-07T21:42:10.824Z,89.97
2023-01-07T21:45:17.708Z,84.45
2023-01-07T21:48:24.775Z,80.81
2023-01-07T21:51:32.004Z,79.18
2023-01-07T21:54:41.662Z,80.25
2023-01-07T21:57:47.897Z,80.49
2023-01-07T22:00:56.515Z,79.75
2023-01-07T22:04:03.167Z,80.24
2023-01-07T22:07:15.105Z,79.82
2023-01-07T22:10:23.876Z,80.79
2023-01-07T22:13:30.999Z,82.05
2023-01-07T22:16:37.725Z,82.99
2023-01-07T22:19:44.970Z,82.30
2023-01-07T22:22:50.991Z,83.35
2023-01-07T22:26:06.392Z,83.52
2023-01-07T22:29:12.482Z,86.55
2023-01-07T22:32:19.439Z,89.23
2023-01-07T22:35:26.123Z,91.74
2023-01-07T22:38:35.817Z,95.53
2023-01-07T22:41:45.181Z,98.97
2023-01-07T22:45:00.052Z,102.19
2023-01-07T22:48:07.237Z,99.94
2023-01-07T22:51:25.264Z,103.15
2023-01-07T22:54:34.123Z,102.04
2023-01-07T22:57:45.156Z,102.98
2023-01-07T23:01:13.359Z,100.73
2023-01-07T23:04:20.438Z,103.17
2023-01-07T23:07:26.722Z,103.72
2023-01-07T23:10:33.818Z,103.59
2023-01-07T23:13:42.502Z,104.88
2023-01-07T23:16:49.911Z,102.81
2023-01-07T23:19:56.027Z,105.04
2023-01-07T23:23:03.550Z,101.74
2023-01-07T23:26:09.675Z,101.54
2023-01-07T23:29:19.614Z,100.54
2023-01-07T23:32:25.765Z,98.52
2023-01-07T23:35:32.810Z,100.65
2023-01-07T23:38:39.721Z,101.40
2023-01-07T23:41:46.639Z,100.99
2023-01-07T23:44:55.289Z,99.55
2023-01-07T23:48:02.126Z,100.08
2023-01-07T23:51:11.509Z,98.51
2023-01-07T23:54:18.471Z,97.41
2023-01-07T23:57:24.636Z,100.35
